Commodore Clipper — C6QQ3 — position and weather

sailwx.info

Track history (hours):
 
Tides and Currents Weather Stations Pressure Air Temp Water Temp Dewpoint Dewpoint Depression Visibility Wind Speed Wind Dir Waves Ship Positions

Commodore Clipper

Operator: Condor Marine Services

Last reported at 2019-Sep-21 00:30 UTC. Time now 2019-Sep-21 00:31 UTC.
Position N 49°33' W 002°11'.

Length 130 m; draft 5.4 m.

Type: Ship. MMSI: 308094000.

Date/timePositionNaut miles runAvg speedWind from/ knotsBaromVisibWave heightAir tempDewpointWater temp
2019-Sep-21 00:30N 49°33' W 002°11'612.7
2019-Sep-21 00:01N 49°39' W 002°06'612.6
2019-Sep-20 23:31N 49°45' W 002°02'612.4
2019-Sep-20 23:00N 49°49' W 001°56'612.8
2019-Sep-20 22:30N 49°54' W 001°49'713.4
2019-Sep-20 22:00N 49°60' W 001°43'815.8
2019-Sep-20 21:30N 50°07' W 001°38'816.2
2019-Sep-20 21:01N 50°13' W 001°31'816.5
2019-Sep-20 20:31N 50°20' W 001°23'816.9
2019-Sep-20 20:01N 50°27' W 001°16'917.4
2019-Sep-20 19:30N 50°34' W 001°07'917.5
2019-Sep-20 19:00N 50°42' W 001°01'714.1
2019-Sep-20 18:30N 50°48' W 001°07'1 2.7
2019-Sep-20 18:00N 50°49' W 001°06'0 0.0
2019-Sep-20 17:30N 50°49' W 001°06'0 0.0
2019-Sep-20 17:00N 50°49' W 001°06'0 0.0
2019-Sep-20 16:30N 50°49' W 001°06'0 0.0
2019-Sep-20 16:00N 50°49' W 001°06'0 0.0
2019-Sep-20 15:30N 50°49' W 001°06'3 5.0
2019-Sep-20 15:00N 50°46' W 001°06'713.3
2019-Sep-20 14:31N 50°40' W 001°04'714.9
2019-Sep-20 14:00N 50°33' W 001°11'912.1
2019-Sep-20 13:15N 50°26' W 001°19'310.8
2019-Sep-20 13:00N 50°24' W 001°21'510.3
2019-Sep-20 12:30N 50°19' W 001°26'713.8
2019-Sep-20 12:01N 50°14' W 001°32'917.2
2019-Sep-20 11:31N 50°07' W 001°39'917.7
2019-Sep-20 11:00N 49°59' W 001°47'918.3
2019-Sep-20 10:31N 49°52' W 001°55'2219.8
2019-Sep-20 09:24N 49°32' W 002°11'818.3
2019-Sep-20 08:58N 49°25' W 002°15'11 2.7
2019-Sep-20 04:46N 49°15' W 002°23'517.4
2019-Sep-20 04:28N 49°20' W 002°27'817.2
2019-Sep-20 04:01N 49°27' W 002°30'1 2.2
2019-Sep-20 03:30N 49°27' W 002°32'0 0.0
2019-Sep-20 03:00N 49°27' W 002°32'0 0.0
2019-Sep-20 02:30N 49°27' W 002°32'4 8.7
2019-Sep-20 02:01N 49°27' W 002°25'1017.9
2019-Sep-20 01:28N 49°32' W 002°13'1316.4
2019-Sep-20 00:40N 49°44' W 002°03'315.9
2019-Sep-20 00:30N 49°46' W 001°60'714.1
2019-Sep-20 00:01N 49°50' W 001°52'714.5
2019-Sep-19 23:30N 49°55' W 001°44'714.5
2019-Sep-19 23:00N 50°01' W 001°36'815.4
2019-Sep-19 22:31N 50°08' W 001°33'815.3
2019-Sep-19 22:01N 50°14' W 001°26'815.9
2019-Sep-19 21:30N 50°22' W 001°20'915.8
2019-Sep-19 20:56N 50°29' W 001°13'715.9
2019-Sep-19 20:30N 50°35' W 001°07'815.6
2019-Sep-19 20:00N 50°41' W 001°01'713.8
2019-Sep-19 19:30N 50°47' W 001°07'2 3.1
2019-Sep-19 19:00N 50°49' W 001°06'0 0.0
2019-Sep-19 18:30N 50°49' W 001°06'0 0.0
2019-Sep-19 18:00N 50°49' W 001°06'0 0.0
2019-Sep-19 17:30N 50°49' W 001°06'0 0.0
2019-Sep-19 17:00N 50°49' W 001°06'0 0.0
2019-Sep-19 16:30N 50°49' W 001°06'3 5.8
2019-Sep-19 16:00N 50°46' W 001°05'713.2
2019-Sep-19 15:30N 50°39' W 001°05'714.7
2019-Sep-19 15:00N 50°33' W 001°11'1815.6
2019-Sep-19 13:53N 50°18' W 001°26'616.5
2019-Sep-19 13:30N 50°13' W 001°31'816.9
2019-Sep-19 13:00N 50°06' W 001°39'917.4
2019-Sep-19 12:30N 49°59' W 001°46'917.7
2019-Sep-19 12:01N 49°51' W 001°53'2118.7
2019-Sep-19 10:53N 49°33' W 002°10'818.7
2019-Sep-19 10:29N 49°26' W 002°15'918.4
2019-Sep-19 10:00N 49°18' W 002°20'12 4.3
2019-Sep-19 07:17N 49°10' W 002°07'814.7
2019-Sep-19 06:44N 49°12' W 002°19'718.0
2019-Sep-19 06:20N 49°18' W 002°24'617.9
2019-Sep-19 06:01N 49°24' W 002°28'4 8.8
2019-Sep-19 05:31N 49°27' W 002°32'0 0.0
2019-Sep-19 05:01N 49°27' W 002°32'0 0.0
2019-Sep-19 04:31N 49°27' W 002°32'0 0.0
2019-Sep-19 04:00N 49°27' W 002°32'0 0.0
2019-Sep-19 03:30N 49°27' W 002°32'3 6.0
2019-Sep-19 03:00N 49°25' W 002°29'916.6
2019-Sep-19 02:29N 49°30' W 002°17'613.1
2019-Sep-19 02:00N 49°33' W 002°10'1316.6
2019-Sep-19 01:12N 49°46' W 002°01'316.1
2019-Sep-19 01:01N 49°48' W 001°59'815.8
2019-Sep-19 00:31N 49°55' W 001°52'815.9
2019-Sep-19 00:00N 50°01' W 001°44'815.4
2019-Sep-18 23:30N 50°07' W 001°37'815.3
2019-Sep-18 23:00N 50°13' W 001°30'1915.1
2019-Sep-18 21:44N 50°29' W 001°12'314.6
2019-Sep-18 21:30N 50°32' W 001°09'714.8
2019-Sep-18 21:00N 50°38' W 001°03'713.3
2019-Sep-18 20:31N 50°44' W 001°04'5 9.1
2019-Sep-18 20:01N 50°49' W 001°06'0 0.1
2019-Sep-18 19:30N 50°49' W 001°06'0 0.0
2019-Sep-18 19:00N 50°49' W 001°06'0 0.0
2019-Sep-18 18:30N 50°49' W 001°06'0 0.0
2019-Sep-18 18:00N 50°49' W 001°06'0 0.0
2019-Sep-18 17:30N 50°49' W 001°06'0 0.0
2019-Sep-18 17:00N 50°49' W 001°06'0 0.0
2019-Sep-18 16:30N 50°49' W 001°06'0 0.0
2019-Sep-18 16:00N 50°49' W 001°06'1 1.7
2019-Sep-18 15:31N 50°48' W 001°07'713.1
2019-Sep-18 15:01N 50°42' W 001°03'714.6
2019-Sep-18 14:30N 50°36' W 001°08'1115.4
2019-Sep-18 13:48N 50°26' W 001°17'516.1
2019-Sep-18 13:30N 50°22' W 001°21'816.6
2019-Sep-18 13:00N 50°16' W 001°29'917.1
2019-Sep-18 12:30N 50°09' W 001°36'917.5
2019-Sep-18 12:01N 50°02' W 001°44'917.9
2019-Sep-18 11:31N 49°54' W 001°51'918.9
2019-Sep-18 11:00N 49°46' W 001°60'1619.3
2019-Sep-18 10:12N 49°32' W 002°11'419.3
2019-Sep-18 10:00N 49°29' W 002°13'919.1
2019-Sep-18 09:31N 49°20' W 002°18'917.2
2019-Sep-18 08:58N 49°11' W 002°18'7 2.1
2019-Sep-18 05:37N 49°11' W 002°07'1513.7
2019-Sep-18 04:32N 49°19' W 002°26'217.6
2019-Sep-18 04:24N 49°21' W 002°27'716.8
2019-Sep-18 04:01N 49°27' W 002°30'1 1.8
2019-Sep-18 03:30N 49°27' W 002°32'0 0.0
2019-Sep-18 03:00N 49°27' W 002°32'0 0.0
2019-Sep-18 02:30N 49°27' W 002°32'0 0.0
2019-Sep-18 02:00N 49°27' W 002°32'4 7.8
2019-Sep-18 01:30N 49°26' W 002°26'916.5
2019-Sep-18 00:56N 49°31' W 002°13'815.7
2019-Sep-18 00:27N 49°37' W 002°07'916.9
2019-Sep-17 23:54N 49°46' W 002°02'615.4
2019-Sep-17 23:30N 49°51' W 001°55'815.4
2019-Sep-17 23:00N 49°57' W 001°49'815.2
2019-Sep-17 22:31N 50°03' W 001°42'714.5
2019-Sep-17 22:01N 50°08' W 001°34'915.2
2019-Sep-17 21:25N 50°16' W 001°27'1515.2
2019-Sep-17 20:28N 50°28' W 001°13'715.2
2019-Sep-17 20:00N 50°34' W 001°08'815.5
2019-Sep-17 19:31N 50°40' W 001°01'714.3
2019-Sep-17 19:01N 50°47' W 001°06'2 4.4
2019-Sep-17 18:30N 50°49' W 001°06'0 0.0
2019-Sep-17 18:00N 50°49' W 001°06'0 0.0
2019-Sep-17 17:30N 50°49' W 001°06'0 0.0
2019-Sep-17 17:00N 50°49' W 001°06'0 0.0
2019-Sep-17 16:31N 50°49' W 001°06'0 0.0
2019-Sep-17 16:01N 50°49' W 001°06'0 0.0
2019-Sep-17 15:30N 50°49' W 001°06'3 5.5
2019-Sep-17 15:00N 50°46' W 001°05'612.6
2019-Sep-17 14:30N 50°40' W 001°04'510.8
2019-Sep-17 14:00N 50°35' W 001°09'4 8.4
2019-Sep-17 13:29N 50°32' W 001°13'611.0
2019-Sep-17 12:55N 50°27' W 001°19'610.8
2019-Sep-17 12:20N 50°21' W 001°24'411.0
2019-Sep-17 11:59N 50°18' W 001°28'715.2
2019-Sep-17 11:30N 50°12' W 001°34'917.8
2019-Sep-17 11:01N 50°05' W 001°42'918.0
2019-Sep-17 10:30N 49°57' W 001°49'918.5
2019-Sep-17 10:00N 49°49' W 001°57'2219.5
2019-Sep-17 08:54N 49°30' W 002°12'718.7
2019-Sep-17 08:30N 49°23' W 002°16'8 1.7
2019-Sep-17 03:55N 49°19' W 002°25'717.9
2019-Sep-17 03:31N 49°25' W 002°29'3 5.1
2019-Sep-17 03:00N 49°27' W 002°32'0 0.0
2019-Sep-17 02:30N 49°27' W 002°32'0 0.0
2019-Sep-17 02:00N 49°27' W 002°32'4 7.9
2019-Sep-17 01:30N 49°26' W 002°26'915.6
2019-Sep-17 00:55N 49°31' W 002°14'1816.6
2019-Sep-16 23:51N 49°46' W 002°01'616.0
2019-Sep-16 23:30N 49°51' W 001°56'815.6
2019-Sep-16 23:00N 49°57' W 001°49'815.1
2019-Sep-16 22:30N 50°03' W 001°42'714.5
2019-Sep-16 22:00N 50°09' W 001°34'714.4
2019-Sep-16 21:30N 50°14' W 001°27'714.7
2019-Sep-16 21:00N 50°20' W 001°20'915.0
2019-Sep-16 20:23N 50°28' W 001°13'614.7
2019-Sep-16 20:00N 50°33' W 001°09'714.9
2019-Sep-16 19:31N 50°39' W 001°02'713.4
2019-Sep-16 19:00N 50°45' W 001°05'3 6.5
2019-Sep-16 18:30N 50°49' W 001°06'0 0.0
2019-Sep-16 18:00N 50°49' W 001°06'0 0.0
2019-Sep-16 17:31N 50°49' W 001°06'0 0.0
2019-Sep-16 17:01N 50°49' W 001°06'0 0.0
2019-Sep-16 16:31N 50°49' W 001°06'0 0.0
2019-Sep-16 16:01N 50°49' W 001°06'0 0.0
2019-Sep-16 15:30N 50°49' W 001°06'3 5.3
2019-Sep-16 15:01N 50°46' W 001°05'612.8
2019-Sep-16 14:30N 50°40' W 001°04'713.8
2019-Sep-16 14:00N 50°34' W 001°11'8 9.6
2019-Sep-16 13:12N 50°28' W 001°18'210.4
2019-Sep-16 13:00N 50°26' W 001°19'510.4
2019-Sep-16 12:30N 50°22' W 001°24'5 9.9
2019-Sep-16 12:00N 50°17' W 001°28'5 9.9
2019-Sep-16 11:30N 50°13' W 001°32'510.3
2019-Sep-16 11:00N 50°09' W 001°37'816.5
2019-Sep-16 10:30N 50°02' W 001°44'919.0
2019-Sep-16 10:01N 49°54' W 001°52'1320.6
2019-Sep-16 09:24N 49°44' W 002°03'1220.3
2019-Sep-16 08:47N 49°33' W 002°11'619.8
2019-Sep-16 08:30N 49°27' W 002°14'1019.5
2019-Sep-16 08:00N 49°18' W 002°20'816.6
2019-Sep-16 07:31N 49°10' W 002°17'713.0
2019-Sep-16 07:00N 49°11' W 002°07'0 0.0
2019-Sep-16 06:30N 49°11' W 002°07'0 0.0
2019-Sep-16 06:00N 49°11' W 002°07'0 0.0
2019-Sep-16 05:30N 49°11' W 002°07'0 0.9
2019-Sep-16 05:01N 49°10' W 002°07'816.7
2019-Sep-16 04:31N 49°12' W 002°20'918.4
2019-Sep-16 04:01N 49°20' W 002°26'816.3
2019-Sep-16 03:31N 49°27' W 002°31'0 0.3
2019-Sep-16 03:00N 49°27' W 002°32'0 0.0
2019-Sep-16 02:30N 49°27' W 002°32'0 0.0
2019-Sep-16 02:01N 49°27' W 002°32'4 7.6
2019-Sep-16 01:30N 49°26' W 002°26'816.3
2019-Sep-16 01:01N 49°31' W 002°16'4 8.0
2019-Sep-16 00:30N 49°32' W 002°10'510.4
2019-Sep-16 00:01N 49°37' W 002°08'510.9
2019-Sep-15 23:31N 49°42' W 002°05'611.1
2019-Sep-15 23:01N 49°46' W 001°60'612.9
2019-Sep-15 22:31N 49°52' W 001°54'714.8
2019-Sep-15 22:00N 49°57' W 001°46'714.6
2019-Sep-15 21:31N 50°03' W 001°39'714.3
2019-Sep-15 21:01N 50°08' W 001°32'714.8
2019-Sep-15 20:31N 50°14' W 001°25'815.5
2019-Sep-15 20:01N 50°21' W 001°21'714.8
2019-Sep-15 19:31N 50°28' W 001°14'714.7
2019-Sep-15 19:01N 50°34' W 001°08'714.9
2019-Sep-15 18:31N 50°40' W 001°01'714.2
2019-Sep-15 18:00N 50°46' W 001°06'2 4.7
2019-Sep-15 17:31N 50°49' W 001°06'0 0.0
2019-Sep-15 17:00N 50°49' W 001°06'0 0.0
2019-Sep-15 16:30N 50°49' W 001°06'0 0.0
2019-Sep-15 16:00N 50°49' W 001°06'0 0.0
2019-Sep-15 15:30N 50°49' W 001°06'0 0.0
2019-Sep-15 15:00N 50°49' W 001°06'0 0.0
2019-Sep-15 14:31N 50°49' W 001°06'0 0.0
2019-Sep-15 14:00N 50°49' W 001°06'0 0.0
2019-Sep-15 13:30N 50°49' W 001°06'0 0.0
2019-Sep-15 13:00N 50°49' W 001°06'0 0.0
2019-Sep-15 12:30N 50°49' W 001°06'0 0.0
2019-Sep-15 12:00N 50°49' W 001°06'0 0.0
2019-Sep-15 11:30N 50°49' W 001°06'0 0.0
2019-Sep-15 11:00N 50°49' W 001°06'0 0.0
2019-Sep-15 10:30N 50°49' W 001°06'0 0.0
2019-Sep-15 10:00N 50°49' W 001°06'0 0.0
2019-Sep-15 09:30N 50°49' W 001°06'2 4.6
2019-Sep-15 09:00N 50°46' W 001°06'612.5
2019-Sep-15 08:30N 50°40' W 001°04'612.8
2019-Sep-15 08:00N 50°35' W 001°09'612.1
2019-Sep-15 07:30N 50°30' W 001°14'612.3
2019-Sep-15 07:00N 50°25' W 001°19'611.4
2019-Sep-15 06:30N 50°20' W 001°24'713.7
2019-Sep-15 06:00N 50°14' W 001°30'917.0
2019-Sep-15 05:30N 50°08' W 001°39'816.6
2019-Sep-15 05:00N 50°01' W 001°47'816.1
2019-Sep-15 04:30N 49°54' W 001°54'815.9
2019-Sep-15 04:00N 49°47' W 001°59'713.9
2019-Sep-15 03:30N 49°41' W 002°04'714.1
2019-Sep-15 02:59N 49°34' W 002°09'715.6
2019-Sep-15 02:30N 49°30' W 002°18'714.4
2019-Sep-15 02:01N 49°26' W 002°27'3 6.7
2019-Sep-15 01:30N 49°27' W 002°32'0 0.0
2019-Sep-15 01:00N 49°27' W 002°32'0 0.0
2019-Sep-15 00:30N 49°27' W 002°32'1 2.2
2019-Sep-15 00:00N 49°27' W 002°30'510.2
2019-Sep-14 23:30N 49°22' W 002°27'917.6
2019-Sep-14 23:00N 49°14' W 002°21'816.4
2019-Sep-14 22:30N 49°10' W 002°11'3 5.3
2019-Sep-14 21:58N 49°11' W 002°07'0 0.0
2019-Sep-14 21:24N 49°11' W 002°07'2 5.0
2019-Sep-14 21:00N 49°10' W 002°10'712.7
2019-Sep-14 20:29N 49°06' W 002°18'3 7.1
2019-Sep-14 20:00N 49°03' W 002°20'4 8.2
2019-Sep-14 19:31N 49°07' W 002°19'1 2.3
2019-Sep-14 19:00N 49°08' W 002°21'4 8.3
2019-Sep-14 18:31N 49°04' W 002°22'4 7.8
2019-Sep-14 17:58N 48°60' W 002°23'3 6.9
2019-Sep-14 17:28N 48°56' W 002°23'4 6.0
2019-Sep-14 16:49N 48°53' W 002°21'2 5.6
2019-Sep-14 16:24N 48°51' W 002°19'11 6.2
2019-Sep-14 14:39N 48°43' W 002°07'311.3
2019-Sep-14 14:21N 48°40' W 002°05'2 0.7
2019-Sep-14 10:57N 48°38' W 002°02'610.2
2019-Sep-14 10:22N 48°43' W 002°07'3 7.8
2019-Sep-14 10:00N 48°46' W 002°05'510.0
2019-Sep-14 09:29N 48°50' W 002°01'511.3
2019-Sep-14 09:00N 48°55' W 001°58'714.4
2019-Sep-14 08:31N 49°02' W 001°56'815.1
2019-Sep-14 08:01N 49°07' W 002°04'4 7.3
2019-Sep-14 07:30N 49°11' W 002°07'0 0.0
2019-Sep-14 07:00N 49°11' W 002°07'0 0.0
2019-Sep-14 06:12N 49°11' W 002°07'0 0.2
2019-Sep-14 05:51N 49°11' W 002°07'611.5
2019-Sep-14 05:19N 49°10' W 002°16'517.0
2019-Sep-14 05:00N 49°14' W 002°22'917.6
2019-Sep-14 04:31N 49°22' W 002°28'612.2
2019-Sep-14 04:00N 49°27' W 002°32'0 0.0
2019-Sep-14 03:31N 49°27' W 002°32'0 0.1
2019-Sep-14 03:01N 49°27' W 002°32'4 7.9
2019-Sep-14 02:30N 49°26' W 002°26'714.9
2019-Sep-14 02:00N 49°30' W 002°15'912.7
2019-Sep-14 01:18N 49°37' W 002°08'618.2
2019-Sep-14 00:57N 49°43' W 002°04'817.3
2019-Sep-14 00:30N 49°50' W 001°58'1019.1
2019-Sep-14 00:00N 49°57' W 001°49'917.1
2019-Sep-13 23:30N 50°04' W 001°42'816.4
2019-Sep-13 23:00N 50°11' W 001°35'816.9
2019-Sep-13 22:30N 50°18' W 001°27'1016.6
2019-Sep-13 21:53N 50°27' W 001°18'615.8
2019-Sep-13 21:30N 50°32' W 001°13'815.3
2019-Sep-13 21:00N 50°38' W 001°06'713.2
2019-Sep-13 20:30N 50°44' W 001°05'4 8.7
2019-Sep-13 20:00N 50°49' W 001°06'0 0.0
2019-Sep-13 19:30N 50°49' W 001°06'0 0.0
2019-Sep-13 19:00N 50°49' W 001°06'0 0.0
2019-Sep-13 18:30N 50°49' W 001°06'0 0.0
2019-Sep-13 18:00N 50°49' W 001°06'0 0.0
2019-Sep-13 17:30N 50°49' W 001°06'0 0.0
2019-Sep-13 17:00N 50°49' W 001°06'2 4.7
2019-Sep-13 16:31N 50°46' W 001°06'713.9
2019-Sep-13 16:01N 50°40' W 001°01'815.9
2019-Sep-13 15:30N 50°33' W 001°08'815.4
2019-Sep-13 15:00N 50°27' W 001°16'815.2
2019-Sep-13 14:30N 50°21' W 001°22'714.8
2019-Sep-13 14:00N 50°16' W 001°30'714.5
2019-Sep-13 13:30N 50°10' W 001°36'714.6
2019-Sep-13 13:01N 50°03' W 001°42'714.3
2019-Sep-13 12:30N 49°57' W 001°48'714.4
2019-Sep-13 12:01N 49°51' W 001°54'714.1
2019-Sep-13 11:31N 49°45' W 002°00'1413.8
2019-Sep-13 10:32N 49°33' W 002°10'116.4
2019-Sep-13 10:27N 49°32' W 002°10'817.2
2019-Sep-13 09:58N 49°24' W 002°15'817.3
2019-Sep-13 09:29N 49°17' W 002°21'915.3
2019-Sep-13 08:53N 49°10' W 002°13'4 8.7
2019-Sep-13 08:26N 49°11' W 002°07'0 0.0
2019-Sep-13 07:58N 49°11' W 002°07'0 0.0
2019-Sep-13 07:30N 49°11' W 002°07'0 0.0
2019-Sep-13 06:53N 49°11' W 002°07'0 0.1
2019-Sep-13 06:15N 49°11' W 002°07'1 3.8
2019-Sep-13 05:58N 49°10' W 002°08'914.5
2019-Sep-13 05:21N 49°14' W 002°20'817.1
2019-Sep-13 04:54N 49°21' W 002°25'716.6
2019-Sep-13 04:30N 49°27' W 002°30'1 2.9
2019-Sep-13 04:00N 49°27' W 002°32'0 0.0
2019-Sep-13 03:30N 49°27' W 002°32'2 4.0
2019-Sep-13 03:00N 49°26' W 002°30'1313.3
2019-Sep-13 02:00N 49°31' W 002°11'814.9
2019-Sep-13 01:27N 49°39' W 002°05'920.0
2019-Sep-13 01:01N 49°47' W 001°59'918.3
2019-Sep-13 00:30N 49°55' W 001°51'917.4
2019-Sep-13 00:00N 50°02' W 001°44'817.0
2019-Sep-12 23:31N 50°09' W 001°37'816.5
2019-Sep-12 23:00N 50°16' W 001°30'916.3
2019-Sep-12 22:27N 50°23' W 001°21'816.0
2019-Sep-12 21:59N 50°29' W 001°15'715.4
2019-Sep-12 21:30N 50°36' W 001°09'714.9
2019-Sep-12 21:00N 50°42' W 001°03'713.4
2019-Sep-12 20:31N 50°48' W 001°07'1 2.0
2019-Sep-12 20:00N 50°49' W 001°06'0 0.0
2019-Sep-12 19:30N 50°49' W 001°06'0 0.0
2019-Sep-12 19:00N 50°49' W 001°06'0 0.0
2019-Sep-12 18:31N 50°49' W 001°06'0 0.0
2019-Sep-12 18:00N 50°49' W 001°06'0 0.0
2019-Sep-12 17:30N 50°49' W 001°06'1 1.9
2019-Sep-12 17:01N 50°48' W 001°07'611.3
2019-Sep-12 16:31N 50°43' W 001°02'815.2
2019-Sep-12 16:00N 50°36' W 001°04'917.0
2019-Sep-12 15:30N 50°29' W 001°12'816.4
2019-Sep-12 15:00N 50°23' W 001°20'816.1
2019-Sep-12 14:30N 50°16' W 001°27'815.6
2019-Sep-12 14:01N 50°10' W 001°34'815.2
2019-Sep-12 13:30N 50°03' W 001°41'715.0
2019-Sep-12 13:00N 49°57' W 001°47'714.7
2019-Sep-12 12:30N 49°51' W 001°54'713.9
2019-Sep-12 12:00N 49°45' W 001°60'1313.1
2019-Sep-12 11:02N 49°34' W 002°09'115.5
2019-Sep-12 10:58N 49°33' W 002°10'816.3
2019-Sep-12 10:30N 49°26' W 002°14'816.4
2019-Sep-12 10:00N 49°19' W 002°19'816.2
2019-Sep-12 09:31N 49°11' W 002°18'714.7
2019-Sep-12 09:00N 49°11' W 002°07'0 0.1
2019-Sep-12 08:24N 49°11' W 002°07'0 0.0
2019-Sep-12 07:51N 49°11' W 002°07'0 0.0
2019-Sep-12 07:16N 49°11' W 002°07'0 0.0
2019-Sep-12 06:58N 49°11' W 002°07'5 9.3
2019-Sep-12 06:27N 49°10' W 002°14'614.8
2019-Sep-12 06:00N 49°14' W 002°22'816.4
2019-Sep-12 05:30N 49°22' W 002°27'612.9
2019-Sep-12 05:00N 49°27' W 002°32'0 0.0
2019-Sep-12 04:30N 49°27' W 002°32'0 0.0
2019-Sep-12 04:00N 49°27' W 002°32'0 0.0
2019-Sep-12 03:31N 49°27' W 002°32'4 7.3
2019-Sep-12 03:01N 49°26' W 002°26'1116.5
2019-Sep-12 02:21N 49°32' W 002°13'1518.3
2019-Sep-12 01:33N 49°45' W 002°02'119.2
2019-Sep-12 01:30N 49°46' W 002°02'918.5
2019-Sep-12 01:01N 49°54' W 001°54'918.4
2019-Sep-12 00:31N 50°02' W 001°46'918.1
2019-Sep-12 00:00N 50°09' W 001°38'917.7
2019-Sep-11 23:30N 50°16' W 001°31'1817.3
2019-Sep-11 22:30N 50°31' W 001°15'917.6
2019-Sep-11 22:01N 50°38' W 001°07'714.2
2019-Sep-11 21:31N 50°45' W 001°05'4 8.5
2019-Sep-11 21:00N 50°49' W 001°06'0 1.0
2019-Sep-11 20:30N 50°49' W 001°06'0 0.0
2019-Sep-11 20:00N 50°49' W 001°06'0 0.0
2019-Sep-11 19:30N 50°49' W 001°06'0 0.0
2019-Sep-11 19:00N 50°49' W 001°06'0 0.0
2019-Sep-11 18:30N 50°49' W 001°06'0 0.0
2019-Sep-11 18:00N 50°49' W 001°06'0 0.0
2019-Sep-11 17:30N 50°49' W 001°06'1 1.6
2019-Sep-11 17:00N 50°48' W 001°07'612.2
2019-Sep-11 16:30N 50°43' W 001°02'714.9
2019-Sep-11 16:01N 50°36' W 001°06'1517.4
2019-Sep-11 15:10N 50°24' W 001°19'316.7
2019-Sep-11 15:00N 50°22' W 001°22'816.6
2019-Sep-11 14:30N 50°16' W 001°30'816.1
2019-Sep-11 14:01N 50°09' W 001°37'815.6
2019-Sep-11 13:30N 50°02' W 001°43'815.2
2019-Sep-11 13:01N 49°56' W 001°50'714.9
2019-Sep-11 12:30N 49°50' W 001°57'2314.1
2019-Sep-11 10:53N 49°29' W 002°12'616.1
2019-Sep-11 10:30N 49°24' W 002°16'15 3.3
2019-Sep-11 06:01N 49°10' W 002°10'215.5
2019-Sep-11 05:53N 49°10' W 002°14'614.1
2019-Sep-11 05:29N 49°13' W 002°20'916.3
2019-Sep-11 04:58N 49°21' W 002°26'715.6
2019-Sep-11 04:30N 49°27' W 002°31'1 1.0
2019-Sep-11 04:01N 49°27' W 002°32'0 0.0
2019-Sep-11 03:30N 49°27' W 002°32'0 0.0
2019-Sep-11 03:00N 49°27' W 002°32'0 0.1
2019-Sep-11 02:31N 49°27' W 002°32'510.2
2019-Sep-11 02:00N 49°27' W 002°24'812.6
2019-Sep-11 01:21N 49°32' W 002°14'  
Track history (hours):
 
Tides and Currents Weather Stations Pressure Air Temp Water Temp Dewpoint Dewpoint Depression Visibility Wind Speed Wind Dir Waves Ship Positions

Commodore Clipper

Operator: Condor Marine Services

Last reported at 2019-Sep-21 00:30 UTC. Time now 2019-Sep-21 00:31 UTC.
Position N 49°33' W 002°11'.

Length 130 m; draft 5.4 m.

Type: Ship. MMSI: 308094000.

Date/timePositionNaut miles runAvg speedWind from/ knotsBaromVisibWave heightAir tempDewpointWater temp
2019-Sep-21 00:30N 49°33' W 002°11'612.7
2019-Sep-21 00:01N 49°39' W 002°06'612.6
2019-Sep-20 23:31N 49°45' W 002°02'612.4
2019-Sep-20 23:00N 49°49' W 001°56'612.8
2019-Sep-20 22:30N 49°54' W 001°49'713.4
2019-Sep-20 22:00N 49°60' W 001°43'815.8
2019-Sep-20 21:30N 50°07' W 001°38'816.2
2019-Sep-20 21:01N 50°13' W 001°31'816.5
2019-Sep-20 20:31N 50°20' W 001°23'816.9
2019-Sep-20 20:01N 50°27' W 001°16'917.4
2019-Sep-20 19:30N 50°34' W 001°07'917.5
2019-Sep-20 19:00N 50°42' W 001°01'714.1
2019-Sep-20 18:30N 50°48' W 001°07'1 2.7
2019-Sep-20 18:00N 50°49' W 001°06'0 0.0
2019-Sep-20 17:30N 50°49' W 001°06'0 0.0
2019-Sep-20 17:00N 50°49' W 001°06'0 0.0
2019-Sep-20 16:30N 50°49' W 001°06'0 0.0
2019-Sep-20 16:00N 50°49' W 001°06'0 0.0
2019-Sep-20 15:30N 50°49' W 001°06'3 5.0
2019-Sep-20 15:00N 50°46' W 001°06'713.3
2019-Sep-20 14:31N 50°40' W 001°04'714.9
2019-Sep-20 14:00N 50°33' W 001°11'912.1
2019-Sep-20 13:15N 50°26' W 001°19'310.8
2019-Sep-20 13:00N 50°24' W 001°21'510.3
2019-Sep-20 12:30N 50°19' W 001°26'713.8
2019-Sep-20 12:01N 50°14' W 001°32'917.2
2019-Sep-20 11:31N 50°07' W 001°39'917.7
2019-Sep-20 11:00N 49°59' W 001°47'918.3
2019-Sep-20 10:31N 49°52' W 001°55'2219.8
2019-Sep-20 09:24N 49°32' W 002°11'818.3
2019-Sep-20 08:58N 49°25' W 002°15'11 2.7
2019-Sep-20 04:46N 49°15' W 002°23'517.4
2019-Sep-20 04:28N 49°20' W 002°27'817.2
2019-Sep-20 04:01N 49°27' W 002°30'1 2.2
2019-Sep-20 03:30N 49°27' W 002°32'0 0.0
2019-Sep-20 03:00N 49°27' W 002°32'0 0.0
2019-Sep-20 02:30N 49°27' W 002°32'4 8.7
2019-Sep-20 02:01N 49°27' W 002°25'1017.9
2019-Sep-20 01:28N 49°32' W 002°13'1316.4
2019-Sep-20 00:40N 49°44' W 002°03'315.9
2019-Sep-20 00:30N 49°46' W 001°60'714.1
2019-Sep-20 00:01N 49°50' W 001°52'714.5
2019-Sep-19 23:30N 49°55' W 001°44'714.5
2019-Sep-19 23:00N 50°01' W 001°36'815.4
2019-Sep-19 22:31N 50°08' W 001°33'815.3
2019-Sep-19 22:01N 50°14' W 001°26'815.9
2019-Sep-19 21:30N 50°22' W 001°20'915.8
2019-Sep-19 20:56N 50°29' W 001°13'715.9
2019-Sep-19 20:30N 50°35' W 001°07'815.6
2019-Sep-19 20:00N 50°41' W 001°01'713.8
2019-Sep-19 19:30N 50°47' W 001°07'2 3.1
2019-Sep-19 19:00N 50°49' W 001°06'0 0.0
2019-Sep-19 18:30N 50°49' W 001°06'0 0.0
2019-Sep-19 18:00N 50°49' W 001°06'0 0.0
2019-Sep-19 17:30N 50°49' W 001°06'0 0.0
2019-Sep-19 17:00N 50°49' W 001°06'0 0.0
2019-Sep-19 16:30N 50°49' W 001°06'3 5.8
2019-Sep-19 16:00N 50°46' W 001°05'713.2
2019-Sep-19 15:30N 50°39' W 001°05'714.7
2019-Sep-19 15:00N 50°33' W 001°11'1815.6
2019-Sep-19 13:53N 50°18' W 001°26'616.5
2019-Sep-19 13:30N 50°13' W 001°31'816.9
2019-Sep-19 13:00N 50°06' W 001°39'917.4
2019-Sep-19 12:30N 49°59' W 001°46'917.7
2019-Sep-19 12:01N 49°51' W 001°53'2118.7
2019-Sep-19 10:53N 49°33' W 002°10'818.7
2019-Sep-19 10:29N 49°26' W 002°15'918.4
2019-Sep-19 10:00N 49°18' W 002°20'12 4.3
2019-Sep-19 07:17N 49°10' W 002°07'814.7
2019-Sep-19 06:44N 49°12' W 002°19'718.0
2019-Sep-19 06:20N 49°18' W 002°24'617.9
2019-Sep-19 06:01N 49°24' W 002°28'4 8.8
2019-Sep-19 05:31N 49°27' W 002°32'0 0.0
2019-Sep-19 05:01N 49°27' W 002°32'0 0.0
2019-Sep-19 04:31N 49°27' W 002°32'0 0.0
2019-Sep-19 04:00N 49°27' W 002°32'0 0.0
2019-Sep-19 03:30N 49°27' W 002°32'3 6.0
2019-Sep-19 03:00N 49°25' W 002°29'916.6
2019-Sep-19 02:29N 49°30' W 002°17'613.1
2019-Sep-19 02:00N 49°33' W 002°10'1316.6
2019-Sep-19 01:12N 49°46' W 002°01'316.1
2019-Sep-19 01:01N 49°48' W 001°59'815.8
2019-Sep-19 00:31N 49°55' W 001°52'815.9
2019-Sep-19 00:00N 50°01' W 001°44'815.4
2019-Sep-18 23:30N 50°07' W 001°37'815.3
2019-Sep-18 23:00N 50°13' W 001°30'1915.1
2019-Sep-18 21:44N 50°29' W 001°12'314.6
2019-Sep-18 21:30N 50°32' W 001°09'714.8
2019-Sep-18 21:00N 50°38' W 001°03'713.3
2019-Sep-18 20:31N 50°44' W 001°04'5 9.1
2019-Sep-18 20:01N 50°49' W 001°06'0 0.1
2019-Sep-18 19:30N 50°49' W 001°06'0 0.0
2019-Sep-18 19:00N 50°49' W 001°06'0 0.0
2019-Sep-18 18:30N 50°49' W 001°06'0 0.0
2019-Sep-18 18:00N 50°49' W 001°06'0 0.0
2019-Sep-18 17:30N 50°49' W 001°06'0 0.0
2019-Sep-18 17:00N 50°49' W 001°06'0 0.0
2019-Sep-18 16:30N 50°49' W 001°06'0 0.0
2019-Sep-18 16:00N 50°49' W 001°06'1 1.7
2019-Sep-18 15:31N 50°48' W 001°07'713.1
2019-Sep-18 15:01N 50°42' W 001°03'714.6
2019-Sep-18 14:30N 50°36' W 001°08'1115.4
2019-Sep-18 13:48N 50°26' W 001°17'516.1
2019-Sep-18 13:30N 50°22' W 001°21'816.6
2019-Sep-18 13:00N 50°16' W 001°29'917.1
2019-Sep-18 12:30N 50°09' W 001°36'917.5
2019-Sep-18 12:01N 50°02' W 001°44'917.9
2019-Sep-18 11:31N 49°54' W 001°51'918.9
2019-Sep-18 11:00N 49°46' W 001°60'1619.3
2019-Sep-18 10:12N 49°32' W 002°11'419.3
2019-Sep-18 10:00N 49°29' W 002°13'919.1
2019-Sep-18 09:31N 49°20' W 002°18'917.2
2019-Sep-18 08:58N 49°11' W 002°18'7 2.1
2019-Sep-18 05:37N 49°11' W 002°07'1513.7
2019-Sep-18 04:32N 49°19' W 002°26'217.6
2019-Sep-18 04:24N 49°21' W 002°27'716.8
2019-Sep-18 04:01N 49°27' W 002°30'1 1.8
2019-Sep-18 03:30N 49°27' W 002°32'0 0.0
2019-Sep-18 03:00N 49°27' W 002°32'0 0.0
2019-Sep-18 02:30N 49°27' W 002°32'0 0.0
2019-Sep-18 02:00N 49°27' W 002°32'4 7.8
2019-Sep-18 01:30N 49°26' W 002°26'916.5
2019-Sep-18 00:56N 49°31' W 002°13'815.7
2019-Sep-18 00:27N 49°37' W 002°07'916.9
2019-Sep-17 23:54N 49°46' W 002°02'615.4
2019-Sep-17 23:30N 49°51' W 001°55'815.4
2019-Sep-17 23:00N 49°57' W 001°49'815.2
2019-Sep-17 22:31N 50°03' W 001°42'714.5
2019-Sep-17 22:01N 50°08' W 001°34'915.2
2019-Sep-17 21:25N 50°16' W 001°27'1515.2
2019-Sep-17 20:28N 50°28' W 001°13'715.2
2019-Sep-17 20:00N 50°34' W 001°08'815.5
2019-Sep-17 19:31N 50°40' W 001°01'714.3
2019-Sep-17 19:01N 50°47' W 001°06'2 4.4
2019-Sep-17 18:30N 50°49' W 001°06'0 0.0
2019-Sep-17 18:00N 50°49' W 001°06'0 0.0
2019-Sep-17 17:30N 50°49' W 001°06'0 0.0
2019-Sep-17 17:00N 50°49' W 001°06'0 0.0
2019-Sep-17 16:31N 50°49' W 001°06'0 0.0
2019-Sep-17 16:01N 50°49' W 001°06'0 0.0
2019-Sep-17 15:30N 50°49' W 001°06'3 5.5
2019-Sep-17 15:00N 50°46' W 001°05'612.6
2019-Sep-17 14:30N 50°40' W 001°04'510.8
2019-Sep-17 14:00N 50°35' W 001°09'4 8.4
2019-Sep-17 13:29N 50°32' W 001°13'611.0
2019-Sep-17 12:55N 50°27' W 001°19'610.8
2019-Sep-17 12:20N 50°21' W 001°24'411.0
2019-Sep-17 11:59N 50°18' W 001°28'715.2
2019-Sep-17 11:30N 50°12' W 001°34'917.8
2019-Sep-17 11:01N 50°05' W 001°42'918.0
2019-Sep-17 10:30N 49°57' W 001°49'918.5
2019-Sep-17 10:00N 49°49' W 001°57'2219.5
2019-Sep-17 08:54N 49°30' W 002°12'718.7
2019-Sep-17 08:30N 49°23' W 002°16'8 1.7
2019-Sep-17 03:55N 49°19' W 002°25'717.9
2019-Sep-17 03:31N 49°25' W 002°29'3 5.1
2019-Sep-17 03:00N 49°27' W 002°32'0 0.0
2019-Sep-17 02:30N 49°27' W 002°32'0 0.0
2019-Sep-17 02:00N 49°27' W 002°32'4 7.9
2019-Sep-17 01:30N 49°26' W 002°26'915.6
2019-Sep-17 00:55N 49°31' W 002°14'1816.6
2019-Sep-16 23:51N 49°46' W 002°01'616.0
2019-Sep-16 23:30N 49°51' W 001°56'815.6
2019-Sep-16 23:00N 49°57' W 001°49'815.1
2019-Sep-16 22:30N 50°03' W 001°42'714.5
2019-Sep-16 22:00N 50°09' W 001°34'714.4
2019-Sep-16 21:30N 50°14' W 001°27'714.7
2019-Sep-16 21:00N 50°20' W 001°20'915.0
2019-Sep-16 20:23N 50°28' W 001°13'614.7
2019-Sep-16 20:00N 50°33' W 001°09'714.9
2019-Sep-16 19:31N 50°39' W 001°02'713.4
2019-Sep-16 19:00N 50°45' W 001°05'3 6.5
2019-Sep-16 18:30N 50°49' W 001°06'0 0.0
2019-Sep-16 18:00N 50°49' W 001°06'0 0.0
2019-Sep-16 17:31N 50°49' W 001°06'0 0.0
2019-Sep-16 17:01N 50°49' W 001°06'0 0.0
2019-Sep-16 16:31N 50°49' W 001°06'0 0.0
2019-Sep-16 16:01N 50°49' W 001°06'0 0.0
2019-Sep-16 15:30N 50°49' W 001°06'3 5.3
2019-Sep-16 15:01N 50°46' W 001°05'612.8
2019-Sep-16 14:30N 50°40' W 001°04'713.8
2019-Sep-16 14:00N 50°34' W 001°11'8 9.6
2019-Sep-16 13:12N 50°28' W 001°18'210.4
2019-Sep-16 13:00N 50°26' W 001°19'510.4
2019-Sep-16 12:30N 50°22' W 001°24'5 9.9
2019-Sep-16 12:00N 50°17' W 001°28'5 9.9
2019-Sep-16 11:30N 50°13' W 001°32'510.3
2019-Sep-16 11:00N 50°09' W 001°37'816.5
2019-Sep-16 10:30N 50°02' W 001°44'919.0
2019-Sep-16 10:01N 49°54' W 001°52'1320.6
2019-Sep-16 09:24N 49°44' W 002°03'1220.3
2019-Sep-16 08:47N 49°33' W 002°11'619.8
2019-Sep-16 08:30N 49°27' W 002°14'1019.5
2019-Sep-16 08:00N 49°18' W 002°20'816.6
2019-Sep-16 07:31N 49°10' W 002°17'713.0
2019-Sep-16 07:00N 49°11' W 002°07'0 0.0
2019-Sep-16 06:30N 49°11' W 002°07'0 0.0
2019-Sep-16 06:00N 49°11' W 002°07'0 0.0
2019-Sep-16 05:30N 49°11' W 002°07'0 0.9
2019-Sep-16 05:01N 49°10' W 002°07'816.7
2019-Sep-16 04:31N 49°12' W 002°20'918.4
2019-Sep-16 04:01N 49°20' W 002°26'816.3
2019-Sep-16 03:31N 49°27' W 002°31'0 0.3
2019-Sep-16 03:00N 49°27' W 002°32'0 0.0
2019-Sep-16 02:30N 49°27' W 002°32'0 0.0
2019-Sep-16 02:01N 49°27' W 002°32'4 7.6
2019-Sep-16 01:30N 49°26' W 002°26'816.3
2019-Sep-16 01:01N 49°31' W 002°16'4 8.0
2019-Sep-16 00:30N 49°32' W 002°10'510.4
2019-Sep-16 00:01N 49°37' W 002°08'510.9
2019-Sep-15 23:31N 49°42' W 002°05'611.1
2019-Sep-15 23:01N 49°46' W 001°60'612.9
2019-Sep-15 22:31N 49°52' W 001°54'714.8
2019-Sep-15 22:00N 49°57' W 001°46'714.6
2019-Sep-15 21:31N 50°03' W 001°39'714.3
2019-Sep-15 21:01N 50°08' W 001°32'714.8
2019-Sep-15 20:31N 50°14' W 001°25'815.5
2019-Sep-15 20:01N 50°21' W 001°21'714.8
2019-Sep-15 19:31N 50°28' W 001°14'714.7
2019-Sep-15 19:01N 50°34' W 001°08'714.9
2019-Sep-15 18:31N 50°40' W 001°01'714.2
2019-Sep-15 18:00N 50°46' W 001°06'2 4.7
2019-Sep-15 17:31N 50°49' W 001°06'0 0.0
2019-Sep-15 17:00N 50°49' W 001°06'0 0.0
2019-Sep-15 16:30N 50°49' W 001°06'0 0.0
2019-Sep-15 16:00N 50°49' W 001°06'0 0.0
2019-Sep-15 15:30N 50°49' W 001°06'0 0.0
2019-Sep-15 15:00N 50°49' W 001°06'0 0.0
2019-Sep-15 14:31N 50°49' W 001°06'0 0.0
2019-Sep-15 14:00N 50°49' W 001°06'0 0.0
2019-Sep-15 13:30N 50°49' W 001°06'0 0.0
2019-Sep-15 13:00N 50°49' W 001°06'0 0.0
2019-Sep-15 12:30N 50°49' W 001°06'0 0.0
2019-Sep-15 12:00N 50°49' W 001°06'0 0.0
2019-Sep-15 11:30N 50°49' W 001°06'0 0.0
2019-Sep-15 11:00N 50°49' W 001°06'0 0.0
2019-Sep-15 10:30N 50°49' W 001°06'0 0.0
2019-Sep-15 10:00N 50°49' W 001°06'0 0.0
2019-Sep-15 09:30N 50°49' W 001°06'2 4.6
2019-Sep-15 09:00N 50°46' W 001°06'612.5
2019-Sep-15 08:30N 50°40' W 001°04'612.8
2019-Sep-15 08:00N 50°35' W 001°09'612.1
2019-Sep-15 07:30N 50°30' W 001°14'612.3
2019-Sep-15 07:00N 50°25' W 001°19'611.4
2019-Sep-15 06:30N 50°20' W 001°24'713.7
2019-Sep-15 06:00N 50°14' W 001°30'917.0
2019-Sep-15 05:30N 50°08' W 001°39'816.6
2019-Sep-15 05:00N 50°01' W 001°47'816.1
2019-Sep-15 04:30N 49°54' W 001°54'815.9
2019-Sep-15 04:00N 49°47' W 001°59'713.9
2019-Sep-15 03:30N 49°41' W 002°04'714.1
2019-Sep-15 02:59N 49°34' W 002°09'715.6
2019-Sep-15 02:30N 49°30' W 002°18'714.4
2019-Sep-15 02:01N 49°26' W 002°27'3 6.7
2019-Sep-15 01:30N 49°27' W 002°32'0 0.0
2019-Sep-15 01:00N 49°27' W 002°32'0 0.0
2019-Sep-15 00:30N 49°27' W 002°32'1 2.2
2019-Sep-15 00:00N 49°27' W 002°30'510.2
2019-Sep-14 23:30N 49°22' W 002°27'917.6
2019-Sep-14 23:00N 49°14' W 002°21'816.4
2019-Sep-14 22:30N 49°10' W 002°11'3 5.3
2019-Sep-14 21:58N 49°11' W 002°07'0 0.0
2019-Sep-14 21:24N 49°11' W 002°07'2 5.0
2019-Sep-14 21:00N 49°10' W 002°10'712.7
2019-Sep-14 20:29N 49°06' W 002°18'3 7.1
2019-Sep-14 20:00N 49°03' W 002°20'4 8.2
2019-Sep-14 19:31N 49°07' W 002°19'1 2.3
2019-Sep-14 19:00N 49°08' W 002°21'4 8.3
2019-Sep-14 18:31N 49°04' W 002°22'4 7.8
2019-Sep-14 17:58N 48°60' W 002°23'3 6.9
2019-Sep-14 17:28N 48°56' W 002°23'4 6.0
2019-Sep-14 16:49N 48°53' W 002°21'2 5.6
2019-Sep-14 16:24N 48°51' W 002°19'11 6.2
2019-Sep-14 14:39N 48°43' W 002°07'311.3
2019-Sep-14 14:21N 48°40' W 002°05'2 0.7
2019-Sep-14 10:57N 48°38' W 002°02'610.2
2019-Sep-14 10:22N 48°43' W 002°07'3 7.8
2019-Sep-14 10:00N 48°46' W 002°05'510.0
2019-Sep-14 09:29N 48°50' W 002°01'511.3
2019-Sep-14 09:00N 48°55' W 001°58'714.4
2019-Sep-14 08:31N 49°02' W 001°56'815.1
2019-Sep-14 08:01N 49°07' W 002°04'4 7.3
2019-Sep-14 07:30N 49°11' W 002°07'0 0.0
2019-Sep-14 07:00N 49°11' W 002°07'0 0.0
2019-Sep-14 06:12N 49°11' W 002°07'0 0.2
2019-Sep-14 05:51N 49°11' W 002°07'611.5
2019-Sep-14 05:19N 49°10' W 002°16'517.0
2019-Sep-14 05:00N 49°14' W 002°22'917.6
2019-Sep-14 04:31N 49°22' W 002°28'612.2
2019-Sep-14 04:00N 49°27' W 002°32'0 0.0
2019-Sep-14 03:31N 49°27' W 002°32'0 0.1
2019-Sep-14 03:01N 49°27' W 002°32'4 7.9
2019-Sep-14 02:30N 49°26' W 002°26'714.9
2019-Sep-14 02:00N 49°30' W 002°15'912.7
2019-Sep-14 01:18N 49°37' W 002°08'618.2
2019-Sep-14 00:57N 49°43' W 002°04'817.3
2019-Sep-14 00:30N 49°50' W 001°58'1019.1
2019-Sep-14 00:00N 49°57' W 001°49'917.1
2019-Sep-13 23:30N 50°04' W 001°42'816.4
2019-Sep-13 23:00N 50°11' W 001°35'816.9
2019-Sep-13 22:30N 50°18' W 001°27'1016.6
2019-Sep-13 21:53N 50°27' W 001°18'615.8
2019-Sep-13 21:30N 50°32' W 001°13'815.3
2019-Sep-13 21:00N 50°38' W 001°06'713.2
2019-Sep-13 20:30N 50°44' W 001°05'4 8.7
2019-Sep-13 20:00N 50°49' W 001°06'0 0.0
2019-Sep-13 19:30N 50°49' W 001°06'0 0.0
2019-Sep-13 19:00N 50°49' W 001°06'0 0.0
2019-Sep-13 18:30N 50°49' W 001°06'0 0.0
2019-Sep-13 18:00N 50°49' W 001°06'0 0.0
2019-Sep-13 17:30N 50°49' W 001°06'0 0.0
2019-Sep-13 17:00N 50°49' W 001°06'2 4.7
2019-Sep-13 16:31N 50°46' W 001°06'713.9
2019-Sep-13 16:01N 50°40' W 001°01'815.9
2019-Sep-13 15:30N 50°33' W 001°08'815.4
2019-Sep-13 15:00N 50°27' W 001°16'815.2
2019-Sep-13 14:30N 50°21' W 001°22'714.8
2019-Sep-13 14:00N 50°16' W 001°30'714.5
2019-Sep-13 13:30N 50°10' W 001°36'714.6
2019-Sep-13 13:01N 50°03' W 001°42'714.3
2019-Sep-13 12:30N 49°57' W 001°48'714.4
2019-Sep-13 12:01N 49°51' W 001°54'714.1
2019-Sep-13 11:31N 49°45' W 002°00'1413.8
2019-Sep-13 10:32N 49°33' W 002°10'116.4
2019-Sep-13 10:27N 49°32' W 002°10'817.2
2019-Sep-13 09:58N 49°24' W 002°15'817.3
2019-Sep-13 09:29N 49°17' W 002°21'915.3
2019-Sep-13 08:53N 49°10' W 002°13'4 8.7
2019-Sep-13 08:26N 49°11' W 002°07'0 0.0
2019-Sep-13 07:58N 49°11' W 002°07'0 0.0
2019-Sep-13 07:30N 49°11' W 002°07'0 0.0
2019-Sep-13 06:53N 49°11' W 002°07'0 0.1
2019-Sep-13 06:15N 49°11' W 002°07'1 3.8
2019-Sep-13 05:58N 49°10' W 002°08'914.5
2019-Sep-13 05:21N 49°14' W 002°20'817.1
2019-Sep-13 04:54N 49°21' W 002°25'716.6
2019-Sep-13 04:30N 49°27' W 002°30'1 2.9
2019-Sep-13 04:00N 49°27' W 002°32'0 0.0
2019-Sep-13 03:30N 49°27' W 002°32'2 4.0
2019-Sep-13 03:00N 49°26' W 002°30'1313.3
2019-Sep-13 02:00N 49°31' W 002°11'814.9
2019-Sep-13 01:27N 49°39' W 002°05'920.0
2019-Sep-13 01:01N 49°47' W 001°59'918.3
2019-Sep-13 00:30N 49°55' W 001°51'917.4
2019-Sep-13 00:00N 50°02' W 001°44'817.0
2019-Sep-12 23:31N 50°09' W 001°37'816.5
2019-Sep-12 23:00N 50°16' W 001°30'916.3
2019-Sep-12 22:27N 50°23' W 001°21'816.0
2019-Sep-12 21:59N 50°29' W 001°15'715.4
2019-Sep-12 21:30N 50°36' W 001°09'714.9
2019-Sep-12 21:00N 50°42' W 001°03'713.4
2019-Sep-12 20:31N 50°48' W 001°07'1 2.0
2019-Sep-12 20:00N 50°49' W 001°06'0 0.0
2019-Sep-12 19:30N 50°49' W 001°06'0 0.0
2019-Sep-12 19:00N 50°49' W 001°06'0 0.0
2019-Sep-12 18:31N 50°49' W 001°06'0 0.0
2019-Sep-12 18:00N 50°49' W 001°06'0 0.0
2019-Sep-12 17:30N 50°49' W 001°06'1 1.9
2019-Sep-12 17:01N 50°48' W 001°07'611.3
2019-Sep-12 16:31N 50°43' W 001°02'815.2
2019-Sep-12 16:00N 50°36' W 001°04'917.0
2019-Sep-12 15:30N 50°29' W 001°12'816.4
2019-Sep-12 15:00N 50°23' W 001°20'816.1
2019-Sep-12 14:30N 50°16' W 001°27'815.6
2019-Sep-12 14:01N 50°10' W 001°34'815.2
2019-Sep-12 13:30N 50°03' W 001°41'715.0
2019-Sep-12 13:00N 49°57' W 001°47'714.7
2019-Sep-12 12:30N 49°51' W 001°54'713.9
2019-Sep-12 12:00N 49°45' W 001°60'1313.1
2019-Sep-12 11:02N 49°34' W 002°09'115.5
2019-Sep-12 10:58N 49°33' W 002°10'816.3
2019-Sep-12 10:30N 49°26' W 002°14'816.4
2019-Sep-12 10:00N 49°19' W 002°19'816.2
2019-Sep-12 09:31N 49°11' W 002°18'714.7
2019-Sep-12 09:00N 49°11' W 002°07'0 0.1
2019-Sep-12 08:24N 49°11' W 002°07'0 0.0
2019-Sep-12 07:51N 49°11' W 002°07'0 0.0
2019-Sep-12 07:16N 49°11' W 002°07'0 0.0
2019-Sep-12 06:58N 49°11' W 002°07'5 9.3
2019-Sep-12 06:27N 49°10' W 002°14'614.8
2019-Sep-12 06:00N 49°14' W 002°22'816.4
2019-Sep-12 05:30N 49°22' W 002°27'612.9
2019-Sep-12 05:00N 49°27' W 002°32'0 0.0
2019-Sep-12 04:30N 49°27' W 002°32'0 0.0
2019-Sep-12 04:00N 49°27' W 002°32'0 0.0
2019-Sep-12 03:31N 49°27' W 002°32'4 7.3
2019-Sep-12 03:01N 49°26' W 002°26'1116.5
2019-Sep-12 02:21N 49°32' W 002°13'1518.3
2019-Sep-12 01:33N 49°45' W 002°02'119.2
2019-Sep-12 01:30N 49°46' W 002°02'918.5
2019-Sep-12 01:01N 49°54' W 001°54'918.4
2019-Sep-12 00:31N 50°02' W 001°46'918.1
2019-Sep-12 00:00N 50°09' W 001°38'917.7
2019-Sep-11 23:30N 50°16' W 001°31'1817.3
2019-Sep-11 22:30N 50°31' W 001°15'917.6
2019-Sep-11 22:01N 50°38' W 001°07'714.2
2019-Sep-11 21:31N 50°45' W 001°05'4 8.5
2019-Sep-11 21:00N 50°49' W 001°06'0 1.0
2019-Sep-11 20:30N 50°49' W 001°06'0 0.0
2019-Sep-11 20:00N 50°49' W 001°06'0 0.0
2019-Sep-11 19:30N 50°49' W 001°06'0 0.0
2019-Sep-11 19:00N 50°49' W 001°06'0 0.0
2019-Sep-11 18:30N 50°49' W 001°06'0 0.0
2019-Sep-11 18:00N 50°49' W 001°06'0 0.0
2019-Sep-11 17:30N 50°49' W 001°06'1 1.6
2019-Sep-11 17:00N 50°48' W 001°07'612.2
2019-Sep-11 16:30N 50°43' W 001°02'714.9
2019-Sep-11 16:01N 50°36' W 001°06'1517.4
2019-Sep-11 15:10N 50°24' W 001°19'316.7
2019-Sep-11 15:00N 50°22' W 001°22'816.6
2019-Sep-11 14:30N 50°16' W 001°30'816.1
2019-Sep-11 14:01N 50°09' W 001°37'815.6
2019-Sep-11 13:30N 50°02' W 001°43'815.2
2019-Sep-11 13:01N 49°56' W 001°50'714.9
2019-Sep-11 12:30N 49°50' W 001°57'2314.1
2019-Sep-11 10:53N 49°29' W 002°12'616.1
2019-Sep-11 10:30N 49°24' W 002°16'15 3.3
2019-Sep-11 06:01N 49°10' W 002°10'215.5
2019-Sep-11 05:53N 49°10' W 002°14'614.1
2019-Sep-11 05:29N 49°13' W 002°20'916.3
2019-Sep-11 04:58N 49°21' W 002°26'715.6
2019-Sep-11 04:30N 49°27' W 002°31'1 1.0
2019-Sep-11 04:01N 49°27' W 002°32'0 0.0
2019-Sep-11 03:30N 49°27' W 002°32'0 0.0
2019-Sep-11 03:00N 49°27' W 002°32'0 0.1
2019-Sep-11 02:31N 49°27' W 002°32'510.2
2019-Sep-11 02:00N 49°27' W 002°24'812.6
2019-Sep-11 01:21N 49°32' W 002°14'  

Dump ship's entire track history